Thunder radar more information blitzortung!


Radar de pluja more information rain snow radar


Visita la nostra xarxa de llocs de meteo:

Template documentation
and downloads

And another site



No particular awareness of the weather is required.    There are no Weather-warnings

Pagina Historial Weather Underground text

Diari Resum Desembre 26, 2017 Unitats:  Mètric    Imperial   Tant
« Previous Dia
SegĂźent Dia »
Diari Setmana Mensual Anual Personalitzada
  Maxima: Minima: Media:
Temperatura: -17.8 °C -15.1 °C -13.3 °C
Punt de rosada: -17.8 °C -18.2 °C -16.8 °C
Humitat: Humidity % 58 % 64 %
Wind Speed: 0 km/h 0 km/h 7.7 km/h
RĂ fegues de vent: 0 km/h - -
Vent:- - SW
Pression baro: 0 hPa 33751.6 hPa -
Precipitacions: 0 mm    
Historical Graphs
 
 
Dades de taula per Desembre 26, 2017
Temps Temperatura Punt de rosada Pression baro Vent Wind Speed RĂ fegues de vent Humitat Rainfall Rate (Hourly)
-17.8 °C -17.8 °C 0 hPa Calm     Humidity % 0 mm
00:00 -14.4 °C -16.5 °C 34496.6 hPa WSW 2.6 km/h 5.1 km/h 77 % 0 mm
00:03 -14.4 °C -16.5 °C 34496.6 hPa Calm     77 % 0 mm
00:06 -14.4 °C -16.5 °C 34496.6 hPa Calm     77 % 0 mm
10:50 -14.1 °C -15.9 °C 34428.8 hPa North 3.1 km/h   79 % 0 mm
10:51 -14.1 °C -15.9 °C 34428.8 hPa WSW 3.1 km/h   79 % 0 mm
10:55 -14.1 °C -15.9 °C 34428.8 hPa Calm     79 % 0 mm
10:56 -14.1 °C -15.9 °C 34428.8 hPa Calm     79 % 0 mm
11:01 -14.1 °C -15.9 °C 34428.8 hPa Calm     79 % 0 mm
11:07 -13.3 °C -15.7 °C 34462.7 hPa ENE 15 km/h 15 km/h 75 % 0 mm
11:08 -13.3 °C -15.7 °C 34462.7 hPa NE 6 km/h 6 km/h 75 % 0 mm
11:13 -12.9 °C -15.3 °C 34462.7 hPa NE 6.8 km/h 6.8 km/h 75 % 0 mm
11:18 -12.8 °C -15.2 °C 34462.7 hPa NE 11.9 km/h 11.9 km/h 74 % 0 mm
11:19 -12.8 °C -15.2 °C 34462.7 hPa ENE 11.9 km/h 11.9 km/h 74 % 0 mm
11:24 -12.8 °C -15.4 °C 34462.7 hPa NNE 11.9 km/h 11.9 km/h 73 % 0 mm
11:25 -12.8 °C -15.4 °C 34462.7 hPa West 11.9 km/h 11.9 km/h 73 % 0 mm
11:30 -12.7 °C -15.3 °C 34462.7 hPa East 9 km/h 9 km/h 72 % 0 mm
11:35 -12.6 °C -15.3 °C 34462.7 hPa NNE 9 km/h 9 km/h 72 % 0 mm
11:40 -12.6 °C -15.2 °C 34462.7 hPa NNE 6 km/h 6 km/h 72 % 0 mm
11:41 -12.6 °C -15.2 °C 34462.7 hPa NE 7.6 km/h 7.6 km/h 72 % 0 mm
11:45 -12.4 °C -15.2 °C 34462.7 hPa NE 11.9 km/h 11.9 km/h 71 % 0 mm
11:46 -12.4 °C -15.2 °C 34462.7 hPa NE 9 km/h 9 km/h 71 % 0 mm
11:51 -12.2 °C -15.1 °C 34462.7 hPa NNE 8 km/h 8 km/h 70 % 0 mm
11:55 -12.2 °C -15.1 °C 34428.8 hPa NNE 9 km/h 9 km/h 70 % 0 mm
11:57 -12.1 °C -15.1 °C 34428.8 hPa ENE 6 km/h 6 km/h 70 % 0 mm
12:02 -11.9 °C -14.9 °C 34428.8 hPa NNE 11.1 km/h 11.1 km/h 69 % 0 mm
12:07 -11.9 °C -15.1 °C 34428.8 hPa NE 5.6 km/h 5.6 km/h 68 % 0 mm
12:09 -11.8 °C -14.9 °C 34395 hPa NNE 6 km/h 6 km/h 68 % 0 mm
12:14 -11.8 °C -14.9 °C 34395 hPa NE 17.9 km/h 17.9 km/h 68 % 0 mm
12:19 -11.9 °C -15.2 °C 34395 hPa NNE 11.9 km/h 11.9 km/h 67 % 0 mm
12:20 -11.9 °C -15.2 °C 34395 hPa North 15 km/h 15 km/h 67 % 0 mm
12:25 -11.7 °C -15 °C 34395 hPa ENE 6.8 km/h 6.8 km/h 67 % 0 mm
12:30 -11.7 °C -15.1 °C 34395 hPa East 6 km/h 6.3 km/h 66 % 0 mm
12:35 -11.6 °C -15 °C 34395 hPa ENE 6.3 km/h 6.3 km/h 66 % 0 mm
12:37 -11.6 °C -15.1 °C 34395 hPa SSE 9.8 km/h 9.8 km/h 65 % 0 mm
12:40 -11.6 °C -15.2 °C 34395 hPa South 9 km/h 9 km/h 64 % 0 mm
12:42 -11.5 °C -15.2 °C 34395 hPa East 9 km/h 9 km/h 64 % 0 mm
12:45 -11.5 °C -15.2 °C 34395 hPa SE 9 km/h 9.3 km/h 64 % 0 mm
12:48 -11.6 °C -15.3 °C 34395 hPa East 15 km/h 15 km/h 63 % 0 mm
12:51 -11.4 °C -15.1 °C 34395 hPa NW 8.5 km/h 8.5 km/h 64 % 0 mm
12:54 -11.2 °C -14.8 °C 34395 hPa WSW 6 km/h 6 km/h 65 % 0 mm
12:57 -11 °C -14.6 °C 34395 hPa SW 6 km/h 6 km/h 65 % 0 mm
13:02 -11 °C -14.6 °C 34395 hPa WNW 9.8 km/h 9.8 km/h 65 % 0 mm
13:03 -10.9 °C -14.5 °C 34395 hPa NNW 9 km/h 9 km/h 65 % 0 mm
13:05 -10.9 °C -14.6 °C 34395 hPa NNW 6 km/h 6 km/h 64 % 0 mm
13:08 -10.9 °C -14.6 °C 34361.1 hPa WSW 17.9 km/h 17.9 km/h 64 % 0 mm
13:12 -10.9 °C -14.6 °C 34361.1 hPa WNW 11.9 km/h 11.9 km/h 64 % 0 mm
13:14 -10.9 °C -14.8 °C 34361.1 hPa NW 6 km/h 6 km/h 63 % 0 mm
13:19 -10.9 °C -14.7 °C 34361.1 hPa WSW 17.9 km/h 17.9 km/h 63 % 0 mm
13:20 -10.9 °C -14.7 °C 34361.1 hPa WNW 15 km/h 15 km/h 63 % 0 mm
13:25 -10.8 °C -14.6 °C 34361.1 hPa NW 9 km/h 9 km/h 63 % 0 mm
13:26 -10.8 °C -14.6 °C 34361.1 hPa West 9 km/h 9 km/h 63 % 0 mm
13:31 -10.8 °C -14.7 °C 34361.1 hPa SW 11.9 km/h 11.9 km/h 62 % 0 mm
13:36 -10.9 °C -14.8 °C 34361.1 hPa WNW 11.9 km/h 11.9 km/h 62 % 0 mm
13:39 -10.9 °C -14.9 °C 34361.1 hPa WSW 9 km/h 9 km/h 61 % 0 mm
13:42 -10.9 °C -15 °C 34361.1 hPa West 11.9 km/h 11.9 km/h 61 % 0 mm
13:47 -10.9 °C -14.9 °C 34361.1 hPa East 6 km/h 6 km/h 61 % 0 mm
13:49 -10.8 °C -14.9 °C 34361.1 hPa WNW 9.3 km/h 9.3 km/h 61 % 0 mm
13:54 -10.8 °C -14.9 °C 34361.1 hPa West 6.8 km/h 6.8 km/h 61 % 0 mm
13:55 -10.9 °C -14.9 °C 34361.1 hPa NNW 9 km/h 9 km/h 61 % 0 mm
14:00 -10.9 °C -14.9 °C 34361.1 hPa WSW 9 km/h 9 km/h 61 % 0 mm
14:01 -10.9 °C -14.9 °C 34361.1 hPa WNW 9 km/h 9 km/h 61 % 0 mm
14:06 -11 °C -15.2 °C 34361.1 hPa SSE 9 km/h 9.3 km/h 60 % 0 mm
14:08 -11 °C -15.2 °C 34361.1 hPa WNW 12.2 km/h 12.2 km/h 60 % 0 mm
14:11 -11.1 °C -15.3 °C 34327.3 hPa West 15 km/h 15 km/h 60 % 0 mm
14:13 -11.1 °C -15.3 °C 34327.3 hPa WNW 6.3 km/h 6.3 km/h 60 % 0 mm
14:16 -11.1 °C -15.2 °C 34327.3 hPa North 9 km/h 9 km/h 61 % 0 mm
14:19 -11.1 °C -15.3 °C 34327.3 hPa NNW 7.6 km/h 7.6 km/h 60 % 0 mm
14:24 -11.2 °C -15.3 °C 34327.3 hPa West 9.3 km/h 9.3 km/h 61 % 0 mm
14:25 -11.3 °C -15.4 °C 34327.3 hPa NNW 15 km/h 15 km/h 60 % 0 mm
14:30 -11.4 °C -15.6 °C 34327.3 hPa WSW 15 km/h 15 km/h 60 % 0 mm
14:31 -11.4 °C -15.6 °C 34327.3 hPa WNW 11.9 km/h 11.9 km/h 60 % 0 mm
14:36 -11.4 °C -15.6 °C 34327.3 hPa SW 15 km/h 15 km/h 60 % 0 mm
14:41 -11.3 °C -15.5 °C 34327.3 hPa WSW 15 km/h 15 km/h 60 % 0 mm
14:43 -11.3 °C -15.5 °C 34327.3 hPa ENE 11.9 km/h 11.9 km/h 60 % 0 mm
14:48 -11.3 °C -15.5 °C 34327.3 hPa North 11.9 km/h 11.9 km/h 60 % 0 mm
14:49 -11.3 °C -15.5 °C 34327.3 hPa SW 6 km/h 6 km/h 60 % 0 mm
14:52 -11.3 °C -15.5 °C 34327.3 hPa West 15.6 km/h 15.6 km/h 60 % 0 mm
14:54 -11.4 °C -15.6 °C 34327.3 hPa WNW 9 km/h 9 km/h 60 % 0 mm
14:59 -11.4 °C -15.6 °C 34327.3 hPa WNW 3.7 km/h 3.7 km/h 60 % 0 mm
15:00 -11.4 °C -15.6 °C 34327.3 hPa WNW 3.7 km/h 3.7 km/h 60 % 0 mm
15:05 -11.3 °C -15.5 °C 34327.3 hPa WNW 5.1 km/h 12.9 km/h 60 % 0 mm
15:09 -11.3 °C -15.4 °C 34327.3 hPa WNW 9 km/h 9 km/h 60 % 0 mm
15:11 -11.3 °C -15.5 °C 34327.3 hPa NNW 11.9 km/h 11.9 km/h 60 % 0 mm
15:15 -11.3 °C -15.5 °C 34327.3 hPa WSW 9 km/h 9 km/h 60 % 0 mm
15:20 -11.4 °C -15.6 °C 34327.3 hPa West 6 km/h 6 km/h 60 % 0 mm
15:23 -11.3 °C -15.5 °C 34327.3 hPa West 8 km/h 8 km/h 60 % 0 mm
15:26 -11.3 °C -15.4 °C 34327.3 hPa WNW 8.5 km/h 8.5 km/h 60 % 0 mm
15:29 -11.3 °C -15.4 °C 34327.3 hPa WSW 15 km/h 15 km/h 60 % 0 mm
15:32 -11.3 °C -15.5 °C 34327.3 hPa WSW 9 km/h 9 km/h 60 % 0 mm
15:37 -11.4 °C -15.7 °C 34327.3 hPa South 15 km/h 15 km/h 59 % 0 mm
15:38 -11.4 °C -15.7 °C 34327.3 hPa WSW 9 km/h 9 km/h 59 % 0 mm
15:40 -11.5 °C -15.8 °C 34327.3 hPa WSW 11.9 km/h 11.9 km/h 59 % 0 mm
15:45 -11.8 °C -16.2 °C 34327.3 hPa SSW 17.9 km/h 17.9 km/h 58 % 0 mm
15:49 -11.9 °C -16.3 °C 34327.3 hPa West 9 km/h 9.8 km/h 58 % 0 mm
15:51 -11.9 °C -16.3 °C 34327.3 hPa NW 15 km/h 15 km/h 58 % 0 mm
15:56 -11.9 °C -16.3 °C 34327.3 hPa SW 11.9 km/h 11.9 km/h 58 % 0 mm
15:57 -12.1 °C -16.4 °C 34327.3 hPa SSW 11.9 km/h 11.9 km/h 58 % 0 mm
15:58 -12 °C -16.4 °C 34327.3 hPa SW 9.8 km/h 9.8 km/h 58 % 0 mm
16:02 -12.1 °C -16.5 °C 34327.3 hPa SSW 11.9 km/h 11.9 km/h 58 % 0 mm
16:07 -12.2 °C -16.6 °C 34327.3 hPa SW 9 km/h 9 km/h 58 % 0 mm
16:12 -12.2 °C -16.5 °C 34327.3 hPa WSW 9 km/h 9 km/h 59 % 0 mm
16:13 -12.2 °C -16.5 °C 34327.3 hPa WSW 9 km/h 9 km/h 59 % 0 mm
16:18 -12.3 °C -16.5 °C 34327.3 hPa West 6 km/h 6 km/h 59 % 0 mm
16:23 -12.4 °C -16.6 °C 34327.3 hPa WNW 6 km/h 6 km/h 59 % 0 mm
16:26 -12.5 °C -16.7 °C 34327.3 hPa West 11.9 km/h 11.9 km/h 59 % 0 mm
16:29 -12.6 °C -16.8 °C 34327.3 hPa WSW 10.3 km/h 10.3 km/h 59 % 0 mm
16:34 -12.7 °C -17.1 °C 34327.3 hPa NW 11.9 km/h 11.9 km/h 58 % 0 mm
16:35 -12.7 °C -17.1 °C 34327.3 hPa WNW 11.9 km/h 11.9 km/h 58 % 0 mm
16:37 -12.7 °C -17.1 °C 34327.3 hPa WNW 6 km/h 6 km/h 58 % 0 mm
16:40 -12.8 °C -17.1 °C 34327.3 hPa WSW 6 km/h 6 km/h 58 % 0 mm
16:45 -12.8 °C -17.1 °C 34327.3 hPa SW 15 km/h 15 km/h 59 % 0 mm
16:50 -12.9 °C -17.2 °C 34327.3 hPa SW 9 km/h 9 km/h 59 % 0 mm
16:51 -12.9 °C -17.2 °C 34327.3 hPa WSW 9 km/h 9 km/h 59 % 0 mm
16:52 -13 °C -17.2 °C 34327.3 hPa West 9 km/h 9 km/h 59 % 0 mm
16:57 -13.1 °C -17.3 °C 34327.3 hPa WNW 9 km/h 9 km/h 59 % 0 mm
16:59 -13.1 °C -17.3 °C 34327.3 hPa WSW 6 km/h 6 km/h 59 % 0 mm
17:00 -13.1 °C -17.3 °C 34327.3 hPa WSW 9 km/h 9 km/h 59 % 0 mm
17:05 -13.2 °C -17.2 °C 34327.3 hPa WSW 9 km/h 9 km/h 60 % 0 mm
17:06 -13.2 °C -17.3 °C 34327.3 hPa WSW 10.3 km/h 10.3 km/h 60 % 0 mm
17:11 -13.3 °C -17.3 °C 34256.2 hPa WSW 9 km/h 9 km/h 60 % 0 mm
17:16 -13.3 °C -17.4 °C 34256.2 hPa SW 11.9 km/h 11.9 km/h 60 % 0 mm
17:17 -13.3 °C -17.4 °C 34256.2 hPa WSW 11.9 km/h 11.9 km/h 60 % 0 mm
17:19 -13.3 °C -17.4 °C 34256.2 hPa WSW 11.9 km/h 11.9 km/h 60 % 0 mm
17:22 -13.4 °C -17.4 °C 34256.2 hPa WSW 6.3 km/h 6.3 km/h 60 % 0 mm
17:24 -13.4 °C -17.5 °C 34256.2 hPa WSW 9 km/h 9 km/h 60 % 0 mm
17:28 -13.5 °C -17.6 °C 34256.2 hPa WSW 6.3 km/h 6.3 km/h 60 % 0 mm
17:33 -13.6 °C -17.6 °C 34256.2 hPa WSW 9 km/h 9 km/h 60 % 0 mm
17:38 -13.6 °C -17.6 °C 34256.2 hPa WSW 11.9 km/h 11.9 km/h 60 % 0 mm
17:43 -13.6 °C -17.6 °C 34256.2 hPa SW 11.9 km/h 11.9 km/h 61 % 0 mm
17:44 -13.6 °C -17.6 °C 34256.2 hPa WSW 11.9 km/h 11.9 km/h 61 % 0 mm
17:49 -13.7 °C -17.6 °C 34256.2 hPa WSW 10.3 km/h 10.3 km/h 61 % 0 mm
17:50 -13.7 °C -17.6 °C 34256.2 hPa SSW 11.9 km/h 11.9 km/h 61 % 0 mm
17:51 -13.7 °C -17.6 °C 34256.2 hPa WNW 11.9 km/h 11.9 km/h 61 % 0 mm
17:55 -13.7 °C -17.6 °C 34256.2 hPa WSW 6.8 km/h 6.8 km/h 61 % 0 mm
18:00 -13.7 °C -17.6 °C 34256.2 hPa SW 6 km/h 6 km/h 61 % 0 mm
18:05 -13.8 °C -17.7 °C 34256.2 hPa WSW 9 km/h 9 km/h 61 % 0 mm
18:10 -13.9 °C -17.8 °C 34256.2 hPa WSW 6 km/h 6 km/h 61 % 0 mm
18:11 -13.9 °C -17.8 °C 34256.2 hPa SSW 6 km/h 6 km/h 61 % 0 mm
18:12 -13.9 °C -17.8 °C 34256.2 hPa SW 6 km/h 6 km/h 61 % 0 mm
18:17 -13.9 °C -17.8 °C 34256.2 hPa West 9 km/h 9 km/h 61 % 0 mm
18:20 -14.7 °C -17.7 °C 34029.3 hPa West 12.9 km/h 12.9 km/h 68 % 0 mm
18:21 -13.8 °C -17.7 °C 34256.2 hPa WSW 6 km/h 6 km/h 61 % 0 mm
18:24 -13.8 °C -17.7 °C 34256.2 hPa South 6 km/h 6 km/h 61 % 0 mm
18:28 -13.9 °C -17.8 °C 34256.2 hPa SW 6 km/h 6 km/h 61 % 0 mm
18:29 -13.9 °C -17.8 °C 34256.2 hPa SSW 3.7 km/h   61 % 0 mm
18:30 -14.7 °C -17.9 °C 34029.3 hPa WSW 5.1 km/h 7.7 km/h 67 % 0 mm
18:34 -13.9 °C -17.8 °C 34256.2 hPa SW 6 km/h 6 km/h 61 % 0 mm
18:39 -14 °C -17.8 °C 34222.3 hPa WSW 6 km/h 6 km/h 62 % 0 mm
18:40 -14 °C -17.8 °C 34222.3 hPa WSW 6 km/h 6 km/h 62 % 0 mm
18:45 -14.1 °C -17.8 °C 34222.3 hPa WSW 3.1 km/h 3.1 km/h 62 % 0 mm
18:46 -14.1 °C -17.8 °C 34222.3 hPa WSW 3.1 km/h 3.1 km/h 62 % 0 mm
18:48 -14.1 °C -17.8 °C 34222.3 hPa WSW 3.1 km/h 3.1 km/h 62 % 0 mm
18:50 -14.6 °C -17.7 °C 33992.1 hPa West 7.7 km/h 10.3 km/h 67 % 0 mm
18:53 -14.1 °C -17.9 °C 34222.3 hPa Calm     62 % 0 mm
18:56 -14.2 °C -17.9 °C 34222.3 hPa Calm     62 % 0 mm
19:00 -14.2 °C -17.9 °C 34222.3 hPa Calm     62 % 0 mm
19:02 -14.2 °C -17.9 °C 34222.3 hPa Calm     62 % 0 mm
19:03 -14.2 °C -17.9 °C 34222.3 hPa Calm     62 % 0 mm
19:05 -14.2 °C -17.9 °C 34222.3 hPa Calm     62 % 0 mm
19:10 -14.3 °C -17.9 °C 34222.3 hPa NNE 6 km/h   63 % 0 mm
19:15 -14.4 °C -18 °C 34222.3 hPa WNW 5.1 km/h 5.1 km/h 63 % 0 mm
19:16 -14.4 °C -18 °C 34222.3 hPa NW 5.6 km/h 5.6 km/h 63 % 0 mm
19:18 -14.4 °C -18 °C 34222.3 hPa NW 6 km/h   63 % 0 mm
19:20 -14.4 °C -17.7 °C 33958.2 hPa West 2.6 km/h 7.7 km/h 66 % 0 mm
19:21 -14.4 °C -18 °C 34222.3 hPa WSW 6 km/h 6 km/h 63 % 0 mm
19:23 -14.4 °C -18 °C 34222.3 hPa WSW 12.2 km/h 12.2 km/h 63 % 0 mm
19:26 -14.4 °C -18 °C 34198.6 hPa West 6 km/h 6 km/h 63 % 0 mm
19:30 -14.3 °C -17.7 °C 33958.2 hPa West 5.1 km/h 10.3 km/h 65 % 0 mm
19:31 -14.4 °C -18.1 °C 34198.6 hPa North 6 km/h 6 km/h 63 % 0 mm
19:33 -14.4 °C -18.1 °C 34198.6 hPa NW 3.1 km/h   63 % 0 mm
19:38 -14.4 °C -18.1 °C 34164.7 hPa WNW 6 km/h   63 % 0 mm
19:40 -14.3 °C -17.7 °C 33958.2 hPa WSW 5.1 km/h 7.7 km/h 65 % 0 mm
19:43 -14.4 °C -18.1 °C 34164.7 hPa West 3.7 km/h 3.7 km/h 63 % 0 mm
19:44 -14.4 °C -18 °C 34164.7 hPa West 4.2 km/h 4.2 km/h 63 % 0 mm
19:48 -14.4 °C -18 °C 34164.7 hPa West 4.2 km/h 4.2 km/h 63 % 0 mm
19:50 -14.3 °C -17.9 °C 34164.7 hPa West 4.2 km/h 4.2 km/h 63 % 0 mm
19:55 -14.3 °C -17.8 °C 34198.6 hPa Calm     64 % 0 mm
19:56 -14.3 °C -17.8 °C 34198.6 hPa Calm     64 % 0 mm
20:00 -14.2 °C -17.6 °C 33958.2 hPa WSW 7.7 km/h 15.6 km/h 65 % 0 mm
20:01 -14.4 °C -17.9 °C 34198.6 hPa West 3.1 km/h   64 % 0 mm
20:02 -14.4 °C -17.9 °C 34198.6 hPa West 3.1 km/h   64 % 0 mm
20:07 -14.4 °C -17.9 °C 34198.6 hPa WSW 6 km/h 6 km/h 64 % 0 mm
20:09 -14.5 °C -18 °C 34198.6 hPa WSW 3.1 km/h   64 % 0 mm
20:10 -14.5 °C -18 °C 34198.6 hPa Calm     64 % 0 mm
20:15 -14.6 °C -18.1 °C 34198.6 hPa WSW 6.3 km/h 6.3 km/h 64 % 0 mm
20:18 -14.6 °C -18.1 °C 34198.6 hPa WSW 3.1 km/h 3.1 km/h 64 % 0 mm
20:20 -14.3 °C -17.6 °C 33924.3 hPa West 7.7 km/h 10.3 km/h 66 % 0 mm
20:21 -14.6 °C -18.1 °C 34198.6 hPa WSW 3.7 km/h 3.7 km/h 64 % 0 mm
20:25 -14.6 °C -18.1 °C 34198.6 hPa WSW 6.8 km/h 6.8 km/h 64 % 0 mm
20:29 -14.6 °C -18.1 °C 34198.6 hPa WSW 6 km/h 6 km/h 64 % 0 mm
20:30 -14.6 °C -18.1 °C 34198.6 hPa WSW 6 km/h 6 km/h 64 % 0 mm
20:35 -14.6 °C -18.1 °C 34198.6 hPa WSW 6 km/h 6 km/h 64 % 0 mm
20:36 -14.6 °C -18.1 °C 34198.6 hPa WSW 6 km/h 6 km/h 64 % 0 mm
20:40 -14.3 °C -17.4 °C 33924.3 hPa West 5.1 km/h 10.3 km/h 67 % 0 mm
20:41 -14.6 °C -18.1 °C 34164.7 hPa SW 3.1 km/h   64 % 0 mm
20:42 -14.6 °C -18.1 °C 34164.7 hPa Calm     64 % 0 mm
20:45 -14.6 °C -18 °C 34164.7 hPa SW 3.1 km/h   65 % 0 mm
20:50 -14.7 °C -18 °C 34164.7 hPa SW 3.1 km/h   65 % 0 mm
20:52 -14.7 °C -18 °C 34164.7 hPa SW 3.1 km/h   65 % 0 mm
20:57 -14.7 °C -18.1 °C 34130.9 hPa WSW 4.2 km/h 4.2 km/h 65 % 0 mm
20:58 -14.7 °C -18.1 °C 34130.9 hPa WSW 3.1 km/h 3.7 km/h 65 % 0 mm
21:00 -14.4 °C -17.3 °C 33890.5 hPa Calm   5.1 km/h 70 % 0 mm
21:03 -14.8 °C -18.2 °C 34130.9 hPa WSW 3.1 km/h   65 % 0 mm
21:04 -14.8 °C -18.2 °C 34130.9 hPa WSW 3.1 km/h   65 % 0 mm
21:07 -14.8 °C -18.2 °C 34130.9 hPa West 3.1 km/h   65 % 0 mm
21:10 -14.7 °C -18.1 °C 34130.9 hPa WSW 6 km/h 6 km/h 65 % 0 mm
21:15 -14.7 °C -18.1 °C 34130.9 hPa West 6 km/h 6 km/h 65 % 0 mm
21:17 -14.7 °C -18 °C 34130.9 hPa WSW 6.3 km/h 6.3 km/h 65 % 0 mm
21:20 -14.8 °C -17.3 °C 33856.6 hPa Calm   2.6 km/h 73 % 0 mm
21:21 -14.6 °C -18 °C 34130.9 hPa WSW 11.9 km/h 11.9 km/h 65 % 0 mm
21:23 -14.6 °C -18 °C 34130.9 hPa SW 9 km/h 9 km/h 65 % 0 mm
21:27 -14.7 °C -18.1 °C 34130.9 hPa WSW 6 km/h 6 km/h 65 % 0 mm
21:30 -14.8 °C -17.2 °C 33856.6 hPa Calm   2.6 km/h 74 % 0 mm
21:32 -14.7 °C -18.1 °C 34130.9 hPa West 14 km/h 14 km/h 65 % 0 mm
21:38 -14.7 °C -18 °C 34130.9 hPa WSW 9 km/h 9 km/h 65 % 0 mm
21:40 -14.9 °C -17.3 °C 33856.6 hPa Calm   5.1 km/h 74 % 0 mm
21:43 -14.7 °C -17.9 °C 34130.9 hPa West 9 km/h 9 km/h 66 % 0 mm
21:44 -14.7 °C -17.9 °C 34130.9 hPa WSW 9 km/h 9 km/h 66 % 0 mm
21:45 -14.7 °C -17.9 °C 34130.9 hPa WSW 9 km/h 9 km/h 66 % 0 mm
21:50 -14.6 °C -17.9 °C 34130.9 hPa WSW 9 km/h 9 km/h 66 % 0 mm
21:55 -14.7 °C -17.9 °C 34130.9 hPa West 6 km/h 6 km/h 66 % 0 mm
21:57 -14.7 °C -17.9 °C 34130.9 hPa WSW 11.9 km/h 11.9 km/h 66 % 0 mm
21:59 -14.7 °C -17.9 °C 34130.9 hPa WSW 9 km/h 9 km/h 66 % 0 mm
22:00 -15 °C -17.2 °C 33856.6 hPa SW 2.6 km/h 2.6 km/h 76 % 0 mm
22:04 -14.6 °C -17.9 °C 34130.9 hPa West 9 km/h 9 km/h 66 % 0 mm
22:09 -14.6 °C -17.9 °C 34097 hPa West 6.8 km/h 6.8 km/h 66 % 0 mm
22:10 -14.6 °C -17.8 °C 34097 hPa West 6.8 km/h 6.8 km/h 66 % 0 mm
22:11 -14.6 °C -17.8 °C 34097 hPa West 6.8 km/h 6.8 km/h 66 % 0 mm
22:16 -14.6 °C -17.8 °C 34097 hPa WNW 6 km/h   66 % 0 mm
22:19 -14.6 °C -17.8 °C 34097 hPa WSW 6 km/h 6 km/h 66 % 0 mm
22:20 -14.6 °C -17.9 °C 34097 hPa NNW 6 km/h 6 km/h 66 % 0 mm
22:25 -14.6 °C -17.7 °C 34097 hPa WNW 6 km/h 6 km/h 67 % 0 mm
22:26 -14.6 °C -17.7 °C 34097 hPa West 6 km/h 6 km/h 67 % 0 mm
22:30 -14.6 °C -17.7 °C 34097 hPa WSW 6 km/h 6 km/h 67 % 0 mm
22:34 -14.6 °C -17.9 °C 34097 hPa WSW 9 km/h 9 km/h 66 % 0 mm
22:35 -14.6 °C -17.9 °C 34097 hPa WNW 6 km/h 6 km/h 66 % 0 mm
22:40 -14.6 °C -17.7 °C 34097 hPa WNW 9 km/h 9 km/h 67 % 0 mm
22:42 -14.6 °C -17.7 °C 34097 hPa West 6 km/h 6 km/h 67 % 0 mm
22:43 -14.6 °C -17.7 °C 34097 hPa WNW 6 km/h 6 km/h 67 % 0 mm
22:48 -14.6 °C -17.7 °C 34097 hPa West 11.9 km/h 11.9 km/h 67 % 0 mm
22:50 -15.1 °C -16.9 °C 33822.8 hPa Calm   2.6 km/h 79 % 0 mm
22:53 -14.6 °C -17.7 °C 34097 hPa WSW 11.1 km/h 11.1 km/h 67 % 0 mm
22:54 -14.6 °C -17.7 °C 34097 hPa WSW 11.9 km/h 11.9 km/h 67 % 0 mm
22:55 -14.6 °C -17.7 °C 34097 hPa WSW 11.9 km/h 11.9 km/h 67 % 0 mm
22:59 -14.6 °C -17.7 °C 34097 hPa West 11.9 km/h 11.9 km/h 67 % 0 mm
23:00 -15 °C -16.8 °C 33822.8 hPa NNE 2.6 km/h 5.1 km/h 79 % 0 mm
23:02 -14.6 °C -17.7 °C 34097 hPa WSW 11.9 km/h 11.9 km/h 67 % 0 mm
23:07 -14.7 °C -17.8 °C 34097 hPa West 9.3 km/h 9.3 km/h 67 % 0 mm
23:10 -15 °C -16.9 °C 33788.9 hPa WSW 2.6 km/h 7.7 km/h 78 % 0 mm
23:12 -14.7 °C -17.8 °C 34063.2 hPa WSW 11.9 km/h 11.9 km/h 67 % 0 mm
23:13 -14.7 °C -17.8 °C 34063.2 hPa West 9.8 km/h 9.8 km/h 67 % 0 mm
23:17 -14.7 °C -17.9 °C 34063.2 hPa WSW 9 km/h 9 km/h 67 % 0 mm
23:19 -14.7 °C -17.9 °C 34063.2 hPa West 9 km/h 9 km/h 67 % 0 mm
23:20 -15 °C -16.9 °C 33788.9 hPa WSW 2.6 km/h 2.6 km/h 78 % 0 mm
23:24 -14.7 °C -17.9 °C 34063.2 hPa West 11.1 km/h 11.1 km/h 67 % 0 mm
23:29 -14.7 °C -17.9 °C 34063.2 hPa West 9 km/h 9 km/h 67 % 0 mm
23:30 -14.9 °C -16.8 °C 33788.9 hPa West 2.6 km/h 5.1 km/h 78 % 0 mm
23:34 -14.7 °C -17.7 °C 34063.2 hPa West 12.7 km/h 12.7 km/h 68 % 0 mm
23:35 -14.7 °C -17.7 °C 34063.2 hPa West 9.3 km/h 9.3 km/h 68 % 0 mm
23:38 -14.7 °C -17.7 °C 34063.2 hPa SW 9 km/h 9 km/h 68 % 0 mm
23:40 -14.8 °C -16.7 °C 33788.9 hPa Calm   2.6 km/h 79 % 0 mm
23:41 -14.7 °C -17.7 °C 34063.2 hPa WSW 16.1 km/h 16.1 km/h 68 % 0 mm
23:46 -14.7 °C -17.7 °C 34063.2 hPa West 15 km/h 15 km/h 68 % 0 mm
23:50 -14.8 °C -16.6 °C 33751.6 hPa West 2.6 km/h 5.1 km/h 80 % 0 mm
23:51 -14.7 °C -17.7 °C 34063.2 hPa West 11.9 km/h 11.9 km/h 68 % 0 mm
23:56 -14.7 °C -17.7 °C 34029.3 hPa WSW 11.9 km/h 11.9 km/h 68 % 0 mm
23:57 -14.7 °C -17.7 °C 34029.3 hPa West 15 km/h 15 km/h 68 % 0 mm
23:58 -14.7 °C -17.7 °C 34029.3 hPa West 9 km/h 9 km/h 68 % 0 mm
Meteo Sesrovires
Elogis d' Weather Underground - 1.75 mb

Guio original per  Jim McMurry - jmcmurry@mwt.net Adaptat per a la plantilla per  Wim van der Kuil - Leuven-Template.eu

Trobareu la nostra informacio del temps tambe a:

Weather Underground

AWEKAS